Airport Information

KOLM - Olympia Regional Airport

KOLM 160754Z AUTO 00000KT 1/2SM FZFG VV001 M02/M03 A2978 RMK AO2 SLP085 I1001 T10171028 400561044


  • General Information

  • Coordinates: N 46°58'9"/ W 122°54'9"
  • Location: N/A
  • Surveyed Elevation: 209 MSL

Operations

Flow Name Active Runways Conditions

Green background denotes normal operations.


Common Frequencies

Callsign Frequency Position Name

More at the Document Center


Charts